BRQ weather

Brno-Tuřany Airport
Brno, South Moravian Region, Czechia

Public forecast

Using degrees Celsius for public forecast. Weather courtesy of forecast.io.

METAR (pilot weather report)

Retrieved 2019/05/21 03:30 UTC (0 seconds ago):

LKTB 210330Z 08006KT 9999 SCT023 10/09 Q1003 NOSIG

TAF (pilot weather forecast)

Forecast is more than 12 hours old.

Retrieved 2019/05/20 00:11 UTC (1 day ago):

TAF LKTB 202300Z 2100/2206 12010KT CAVOK BECMG 2100/2102 7000 SCT008 PROB40 TEMPO 2102/2106 3000 BR BKN008 BECMG 2107/2109 9999 SCT040 PROB30 TEMPO 2110/2118 6000 SHRA BKN025CB BECMG 2115/2117 30008KT TEMPO 2204/2206 5000 SHRA SCT020CB BKN030